Time;durP1;ratioP1;P1;durP2;ratioP2;P2;SDS_P1;SDS_P2;PMS_P1;PMS_P2;Temp;Humidity;BMP_temperature;BMP_pressure;BME280_temperature;BME280_humidity;BME280_pressure;Samples;Min_cycle;Max_cycle;Signal;HPM_P1;HPM_P2
2022/09/07 00:01:09;;;;;;;8.70;2.17;;;20.40;99.90;;;;;;6232529;28;20531;-80
2022/09/07 00:04:12;;;;;;;5.97;1.75;;;20.40;99.90;;;;;;6232158;28;20046;-80
2022/09/07 00:07:14;;;;;;;4.55;1.85;;;20.40;99.90;;;;;;6232490;28;20130;-80
2022/09/07 00:10:16;;;;;;;5.82;1.30;;;20.40;99.90;;;;;;6232167;28;20061;-80
2022/09/07 00:13:18;;;;;;;6.43;2.10;;;20.20;99.90;;;;;;6245048;28;20034;-79
2022/09/07 00:16:21;;;;;;;4.43;1.90;;;20.20;99.90;;;;;;6252884;28;20038;-80
2022/09/07 00:19:25;;;;;;;6.47;2.22;;;20.20;99.90;;;;;;6238720;28;20046;-81
2022/09/07 00:22:26;;;;;;;4.28;1.65;;;20.20;99.90;;;;;;6235563;28;20084;-81
2022/09/07 00:25:28;;;;;;;2.00;1.45;;;20.10;99.90;;;;;;6236588;28;20092;-80
2022/09/07 00:28:30;;;;;;;7.82;2.30;;;20.10;99.90;;;;;;6236153;28;20056;-80
2022/09/07 00:31:33;;;;;;;6.95;2.20;;;20.10;99.90;;;;;;6235276;28;20046;-80
2022/09/07 00:34:36;;;;;;;7.00;1.65;;;20.10;99.90;;;;;;6235640;28;20065;-80
2022/09/07 00:37:38;;;;;;;10.93;2.22;;;20.10;99.90;;;;;;6235337;28;20105;-80
2022/09/07 00:40:40;;;;;;;4.65;1.45;;;20.10;99.90;;;;;;6235097;28;20056;-80
2022/09/07 00:43:44;;;;;;;5.00;1.38;;;20.00;99.90;;;;;;6234543;28;20129;-81
2022/09/07 00:46:46;;;;;;;5.13;2.05;;;20.00;99.90;;;;;;6233585;28;20124;-80
2022/09/07 00:49:54;;;;;;;9.02;1.90;;;20.00;99.90;;;;;;6234775;28;20061;-80
2022/09/07 00:53:00;;;;;;;8.20;1.67;;;20.00;99.90;;;;;;6235501;28;20129;-80
2022/09/07 00:56:03;;;;;;;6.47;1.83;;;20.10;99.90;;;;;;6234059;28;20237;-80
2022/09/07 00:59:07;;;;;;;7.95;2.30;;;20.10;99.90;;;;;;6234272;28;20045;-80
2022/09/07 01:02:10;;;;;;;3.38;1.88;;;20.20;99.90;;;;;;6233659;28;20563;-80
2022/09/07 01:05:21;;;;;;;4.15;1.80;;;20.30;99.90;;;;;;6234244;28;20054;-80
2022/09/07 01:08:24;;;;;;;3.10;1.80;;;20.20;99.90;;;;;;6233562;28;20046;-80
2022/09/07 01:11:25;;;;;;;5.25;1.48;;;20.20;99.90;;;;;;6233846;28;20553;-80
2022/09/07 01:14:30;;;;;;;4.13;1.92;;;20.30;99.90;;;;;;6233537;28;20112;-80
2022/09/07 01:17:47;;;;;;;4.45;1.50;;;20.30;99.90;;;;;;6233737;28;20110;-80
2022/09/07 01:21:19;;;;;;;5.53;2.00;;;20.30;99.90;;;;;;6234134;28;20668;-80
2022/09/07 01:24:40;;;;;;;5.10;1.90;;;20.40;99.90;;;;;;6233893;28;20108;-80
2022/09/07 01:28:05;;;;;;;5.95;2.05;;;20.50;99.90;;;;;;6233742;28;20104;-80
2022/09/07 01:31:17;;;;;;;6.15;1.92;;;20.50;99.90;;;;;;6233724;28;20073;-80
2022/09/07 01:34:23;;;;;;;6.72;1.73;;;20.60;99.90;;;;;;6232732;28;20065;-80
2022/09/07 01:37:34;;;;;;;3.95;1.42;;;20.60;99.90;;;;;;6234608;28;20069;-81
2022/09/07 01:40:43;;;;;;;5.65;1.70;;;20.70;99.90;;;;;;6233808;28;20163;-79
2022/09/07 01:43:53;;;;;;;4.97;1.60;;;20.70;99.90;;;;;;6234843;28;20570;-79
2022/09/07 01:47:01;;;;;;;7.93;1.65;;;20.60;99.90;;;;;;6234311;28;20185;-80
2022/09/07 01:50:09;;;;;;;2.33;1.58;;;20.60;99.90;;;;;;6233738;28;20057;-80
2022/09/07 01:53:16;;;;;;;6.10;1.90;;;20.60;99.90;;;;;;6234294;28;20113;-80
2022/09/07 01:56:24;;;;;;;4.88;2.03;;;20.50;99.90;;;;;;6239765;28;20034;-80
2022/09/07 01:59:32;;;;;;;5.25;1.85;;;20.50;99.90;;;;;;6277264;22;20589;-79
2022/09/07 02:02:40;;;;;;;5.78;1.80;;;20.40;99.90;;;;;;6275939;28;20049;-79
2022/09/07 02:05:46;;;;;;;;;;;20.30;99.90;;;;;;6276801;28;20049;-78
2022/09/07 02:08:53;;;;;;;9.48;2.13;;;20.30;99.90;;;;;;6283926;28;20564;-78
2022/09/07 02:11:55;;;;;;;6.35;2.33;;;20.40;99.90;;;;;;6300260;28;20041;-79
2022/09/07 02:15:01;;;;;;;5.10;1.88;;;20.40;99.90;;;;;;6300468;28;20074;-79
2022/09/07 02:18:07;;;;;;;3.83;1.95;;;20.30;99.90;;;;;;6300474;28;20124;-79
2022/09/07 02:21:10;;;;;;;7.47;2.10;;;20.30;99.90;;;;;;6301361;28;20433;-78
2022/09/07 02:24:16;;;;;;;6.97;2.30;;;20.40;99.90;;;;;;6300320;28;20055;-79
2022/09/07 02:27:24;;;;;;;5.25;2.08;;;20.40;99.90;;;;;;6300601;28;20412;-81
2022/09/07 02:30:27;;;;;;;6.80;1.73;;;20.40;99.90;;;;;;6301075;28;20060;-79
2022/09/07 02:33:30;;;;;;;4.70;2.25;;;20.30;99.90;;;;;;6301066;28;20048;-79
2022/09/07 02:36:35;;;;;;;4.88;2.03;;;20.40;99.90;;;;;;6301099;28;20131;-81
2022/09/07 02:39:37;;;;;;;7.30;2.75;;;20.30;99.90;;;;;;6300119;28;20044;-80
2022/09/07 02:42:39;;;;;;;6.20;1.95;;;20.30;99.90;;;;;;6300920;28;20250;-79
2022/09/07 02:46:01;;;;;;;7.35;2.22;;;20.30;99.90;;;;;;6300612;28;20058;-79
2022/09/07 02:49:11;;;;;;;8.15;2.20;;;20.20;99.90;;;;;;6301082;28;20186;-79
2022/09/07 02:52:21;;;;;;;4.53;2.03;;;20.30;99.90;;;;;;6300423;28;20068;-79
2022/09/07 02:55:32;;;;;;;9.77;2.10;;;20.20;99.90;;;;;;6300341;28;20048;-79
2022/09/07 02:58:42;;;;;;;5.82;2.35;;;20.20;99.90;;;;;;6299843;28;20402;-80
2022/09/07 03:01:56;;;;;;;7.45;2.55;;;20.10;99.90;;;;;;6300098;28;20053;-79
2022/09/07 03:05:04;;;;;;;5.20;1.30;;;20.00;99.90;;;;;;6300842;28;20133;-79
2022/09/07 03:08:09;;;;;;;8.50;2.00;;;20.00;99.90;;;;;;6299038;28;20045;-80
2022/09/07 03:11:12;;;;;;;4.85;1.73;;;20.00;99.90;;;;;;6300092;28;20287;-80
2022/09/07 03:14:17;;;;;;;7.55;1.98;;;20.10;99.90;;;;;;6300232;28;20524;-79
2022/09/07 03:17:20;;;;;;;6.95;1.65;;;20.10;99.90;;;;;;6299842;28;20470;-80
2022/09/07 03:20:22;;;;;;;6.70;2.90;;;20.10;99.90;;;;;;6299938;28;20041;-79
2022/09/07 03:23:24;;;;;;;8.57;2.30;;;20.00;99.90;;;;;;6299519;28;20510;-78
2022/09/07 03:26:26;;;;;;;7.47;2.00;;;20.00;99.90;;;;;;6299874;28;20146;-80
2022/09/07 03:29:27;;;;;;;4.50;2.10;;;20.00;99.90;;;;;;6299436;28;20190;-80
2022/09/07 03:32:32;;;;;;;4.57;1.90;;;20.10;99.90;;;;;;6299409;28;20055;-80
2022/09/07 03:35:34;;;;;;;4.28;1.70;;;20.00;99.90;;;;;;6299699;28;20051;-80
2022/09/07 03:38:36;;;;;;;6.72;1.85;;;20.10;99.90;;;;;;6299029;28;20506;-79
2022/09/07 03:41:38;;;;;;;15.00;2.10;;;20.00;99.90;;;;;;6299484;28;20051;-79
2022/09/07 03:44:39;;;;;;;5.22;2.25;;;20.00;99.90;;;;;;6299304;28;20052;-79
2022/09/07 03:47:43;;;;;;;7.43;2.35;;;19.90;99.90;;;;;;6298965;28;20044;-79
2022/09/07 03:50:44;;;;;;;4.18;2.67;;;19.90;99.90;;;;;;6298734;28;20131;-80
2022/09/07 03:53:47;;;;;;;2.97;1.52;;;19.80;99.90;;;;;;6299242;28;20048;-79
2022/09/07 03:56:49;;;;;;;7.55;2.05;;;19.70;99.90;;;;;;6299886;28;20048;-80
2022/09/07 03:59:50;;;;;;;6.57;1.85;;;19.80;99.90;;;;;;6298415;28;20170;-79
2022/09/07 04:02:54;;;;;;;4.20;2.20;;;19.80;99.90;;;;;;6298474;28;20044;-78
2022/09/07 04:05:58;;;;;;;5.93;1.92;;;19.80;99.90;;;;;;6297871;28;20508;-79
2022/09/07 04:09:03;;;;;;;6.10;2.00;;;19.80;99.90;;;;;;6298748;28;20143;-79
2022/09/07 04:12:05;;;;;;;3.40;1.58;;;19.70;99.90;;;;;;6298101;28;20055;-79
2022/09/07 04:15:07;;;;;;;4.75;1.60;;;19.50;99.90;;;;;;6297938;28;20658;-79
2022/09/07 04:18:11;;;;;;;5.40;1.98;;;19.50;99.90;;;;;;6297987;28;20052;-78
2022/09/07 04:21:12;;;;;;;2.75;1.80;;;19.40;99.90;;;;;;6298546;28;20045;-80
2022/09/07 04:24:14;;;;;;;9.05;2.35;;;19.40;99.90;;;;;;6297790;28;20524;-79
2022/09/07 04:27:16;;;;;;;7.35;2.10;;;19.40;99.90;;;;;;6297794;28;20410;-82
2022/09/07 04:30:18;;;;;;;8.93;2.05;;;19.40;99.90;;;;;;6297939;28;20131;-80
2022/09/07 04:33:21;;;;;;;6.03;1.65;;;19.40;99.90;;;;;;6298405;28;20063;-79
2022/09/07 04:36:24;;;;;;;9.85;2.30;;;19.40;99.90;;;;;;6297554;28;20395;-80
2022/09/07 04:39:26;;;;;;;5.38;1.50;;;19.40;99.90;;;;;;6297497;28;20048;-79
2022/09/07 04:42:29;;;;;;;4.38;1.80;;;19.30;99.90;;;;;;6297921;28;20509;-80
2022/09/07 04:45:31;;;;;;;10.73;2.33;;;19.30;99.90;;;;;;6298582;28;20068;-79
2022/09/07 04:48:34;;;;;;;5.25;1.55;;;19.20;99.90;;;;;;6298052;28;20056;-80
2022/09/07 04:51:38;;;;;;;3.78;1.73;;;19.20;99.90;;;;;;6298433;28;20049;-79
2022/09/07 04:54:40;;;;;;;8.15;1.80;;;19.20;99.90;;;;;;6297991;28;20498;-80
2022/09/07 04:57:42;;;;;;;9.20;2.20;;;19.10;99.90;;;;;;6298863;28;20064;-80
2022/09/07 05:00:43;;;;;;;4.97;1.70;;;19.10;99.90;;;;;;6298599;28;20135;-79
2022/09/07 05:03:47;;;;;;;5.40;1.48;;;19.10;99.90;;;;;;6298785;28;20179;-79
2022/09/07 05:06:49;;;;;;;7.30;2.45;;;19.20;99.90;;;;;;6297680;28;20048;-80
2022/09/07 05:09:50;;;;;;;4.63;1.83;;;19.10;99.90;;;;;;6298373;28;20155;-79
2022/09/07 05:12:52;;;;;;;8.95;2.15;;;19.10;99.90;;;;;;6298421;28;20071;-79
2022/09/07 05:15:54;;;;;;;7.55;1.90;;;19.10;99.90;;;;;;6297385;28;20425;-80
2022/09/07 05:18:59;;;;;;;14.98;2.33;;;19.20;99.90;;;;;;6296953;28;20127;-79
2022/09/07 05:22:01;;;;;;;12.10;2.60;;;19.20;99.90;;;;;;6297623;28;20044;-79
2022/09/07 05:25:03;;;;;;;7.60;2.40;;;19.30;99.90;;;;;;6298154;28;20494;-80
2022/09/07 05:28:05;;;;;;;5.65;2.75;;;19.40;99.90;;;;;;6297104;28;20055;-80
2022/09/07 05:31:08;;;;;;;6.30;1.98;;;19.50;99.90;;;;;;6297965;28;20048;-80
2022/09/07 05:34:12;;;;;;;2.85;1.80;;;19.70;99.90;;;;;;6303773;28;20048;-80
2022/09/07 05:37:14;;;;;;;3.38;1.77;;;19.80;99.90;;;;;;6303371;28;20044;-79
2022/09/07 05:40:16;;;;;;;6.50;1.58;;;20.00;99.90;;;;;;6302305;28;20051;-80
2022/09/07 05:43:18;;;;;;;6.55;1.75;;;20.20;99.90;;;;;;6302425;28;20420;-79
2022/09/07 05:46:20;;;;;;;6.82;2.13;;;20.40;99.90;;;;;;6303460;28;20044;-80
2022/09/07 05:49:23;;;;;;;5.15;2.13;;;20.50;99.90;;;;;;6303124;28;20186;-79
2022/09/07 05:52:25;;;;;;;6.20;1.60;;;20.70;99.90;;;;;;6303202;28;20135;-81
2022/09/07 05:55:27;;;;;;;9.40;1.73;;;20.90;99.90;;;;;;6303576;28;20128;-79
2022/09/07 05:58:29;;;;;;;5.80;1.67;;;21.10;99.90;;;;;;6303633;28;20143;-80
2022/09/07 06:01:34;;;;;;;5.57;1.30;;;21.30;99.90;;;;;;6303233;28;20044;-80
2022/09/07 06:04:37;;;;;;;5.03;2.47;;;21.50;99.90;;;;;;6303305;28;20049;-80
2022/09/07 06:07:39;;;;;;;10.63;1.67;;;21.70;99.90;;;;;;6303200;28;20078;-80
2022/09/07 06:10:40;;;;;;;5.28;2.03;;;21.90;99.90;;;;;;6303674;28;20124;-81
2022/09/07 06:13:42;;;;;;;9.65;2.13;;;21.80;99.90;;;;;;6303661;28;20055;-81
2022/09/07 06:16:44;;;;;;;10.10;2.10;;;21.70;99.90;;;;;;6304351;28;20055;-81
2022/09/07 06:19:47;;;;;;;3.17;1.38;;;21.80;99.90;;;;;;6302301;28;20040;-80
2022/09/07 06:22:49;;;;;;;8.65;1.80;;;21.90;99.90;;;;;;6302665;28;20045;-80
2022/09/07 06:25:51;;;;;;;4.72;1.92;;;22.30;99.90;;;;;;6302132;28;20052;-80
2022/09/07 06:28:53;;;;;;;6.40;1.30;;;22.30;99.90;;;;;;6303908;28;20448;-80
2022/09/07 06:31:54;;;;;;;5.00;1.85;;;22.30;99.90;;;;;;6303071;28;20594;-79
2022/09/07 06:34:57;;;;;;;8.80;1.42;;;22.40;99.90;;;;;;6304681;28;20055;-81
2022/09/07 06:37:59;;;;;;;4.82;2.03;;;22.70;99.90;;;;;;6304424;28;20047;-81
2022/09/07 06:41:01;;;;;;;8.80;1.60;;;23.00;99.90;;;;;;6304980;28;20044;-81
2022/09/07 06:44:03;;;;;;;5.82;1.45;;;23.20;99.90;;;;;;6305058;28;20044;-81
2022/09/07 06:47:05;;;;;;;4.80;1.15;;;23.30;99.90;;;;;;6304179;28;20048;-81
2022/09/07 06:50:09;;;;;;;1.48;0.80;;;23.60;99.90;;;;;;6303613;28;20048;-81
2022/09/07 06:53:11;;;;;;;11.90;2.00;;;23.90;99.20;;;;;;6304030;28;20052;-81
2022/09/07 06:56:15;;;;;;;8.25;1.25;;;24.10;98.40;;;;;;6304084;28;20051;-81
2022/09/07 06:59:17;;;;;;;8.65;1.25;;;24.40;97.90;;;;;;6303608;28;20401;-81
2022/09/07 07:02:19;;;;;;;5.10;1.08;;;24.80;96.70;;;;;;6304292;28;20524;-80
2022/09/07 07:05:22;;;;;;;5.18;1.10;;;25.30;95.90;;;;;;6303404;28;20055;-80
2022/09/07 07:08:25;;;;;;;6.97;1.83;;;25.90;94.30;;;;;;6302743;28;20479;-80
2022/09/07 07:11:27;;;;;;;2.90;1.00;;;26.80;92.30;;;;;;6303884;28;20036;-79
2022/09/07 07:14:28;;;;;;;10.68;2.20;;;27.50;89.90;;;;;;6303775;28;20048;-80
2022/09/07 07:17:30;;;;;;;5.68;2.08;;;27.70;86.40;;;;;;6303939;28;20190;-80
2022/09/07 07:20:34;;;;;;;7.32;1.40;;;28.10;84.70;;;;;;6303151;28;20040;-80
2022/09/07 07:23:36;;;;;;;4.15;1.48;;;29.00;81.30;;;;;;6303276;28;20178;-80
2022/09/07 07:26:39;;;;;;;2.95;0.82;;;30.50;76.60;;;;;;6303482;28;20135;-80
2022/09/07 07:29:40;;;;;;;9.70;1.13;;;31.90;69.50;;;;;;6303368;28;20178;-80
2022/09/07 07:32:43;;;;;;;5.50;1.13;;;33.00;65.40;;;;;;6303568;28;20127;-80
2022/09/07 07:35:46;;;;;;;5.07;1.10;;;33.50;61.40;;;;;;6247276;28;20114;-80
2022/09/07 07:38:50;;;;;;;3.13;1.25;;;33.80;60.50;;;;;;6267619;28;20104;-80
2022/09/07 07:41:52;;;;;;;3.95;1.17;;;34.60;58.60;;;;;;6276382;28;20041;-80
2022/09/07 07:44:54;;;;;;;3.03;1.10;;;34.90;56.60;;;;;;6270659;28;20505;-81
2022/09/07 07:47:56;;;;;;;7.63;1.00;;;35.00;55.50;;;;;;6278959;28;20098;-81
2022/09/07 07:51:00;;;;;;;2.60;0.77;;;34.80;55.50;;;;;;6279182;28;20581;-81
2022/09/07 07:54:01;;;;;;;6.82;1.02;;;34.70;55.10;;;;;;6278098;28;20143;-81
2022/09/07 07:57:04;;;;;;;4.43;0.98;;;34.10;55.50;;;;;;6278221;28;20131;-80
2022/09/07 08:00:06;;;;;;;9.85;1.77;;;33.80;56.90;;;;;;6275338;28;20047;-79
2022/09/07 08:03:08;;;;;;;6.70;1.35;;;33.60;56.70;;;;;;6273625;28;20053;-79
2022/09/07 08:06:13;;;;;;;2.55;0.98;;;33.20;57.70;;;;;;6258027;28;20528;-80
2022/09/07 08:09:15;;;;;;;10.40;1.55;;;33.00;58.20;;;;;;6254578;28;20045;-79
2022/09/07 08:12:18;;;;;;;5.90;1.55;;;32.80;58.60;;;;;;6248567;28;20414;-79
2022/09/07 08:15:20;;;;;;;8.30;1.23;;;32.90;58.50;;;;;;6248491;28;20041;-79
2022/09/07 08:18:22;;;;;;;7.97;1.00;;;33.30;57.80;;;;;;6248522;28;20042;-79
2022/09/07 08:21:25;;;;;;;8.25;1.27;;;34.00;55.80;;;;;;6249075;28;20056;-79
2022/09/07 08:24:27;;;;;;;3.05;0.52;;;34.60;54.80;;;;;;6249950;28;20045;-79
2022/09/07 08:27:28;;;;;;;3.17;1.20;;;35.20;54.10;;;;;;6248603;28;20265;-79
2022/09/07 08:30:30;;;;;;;6.38;1.85;;;35.70;51.70;;;;;;6248501;28;20053;-79
2022/09/07 08:33:33;;;;;;;8.38;0.60;;;35.30;51.90;;;;;;6249351;28;20498;-80
2022/09/07 08:36:36;;;;;;;4.72;0.95;;;35.60;51.20;;;;;;6263233;28;20412;-79
2022/09/07 08:39:38;;;;;;;5.82;0.98;;;35.90;50.40;;;;;;6269074;28;20052;-79
2022/09/07 08:42:55;;;;;;;8.73;1.23;;;35.80;50.10;;;;;;6272404;28;20049;-80
2022/09/07 08:46:03;;;;;;;3.73;0.70;;;36.20;49.60;;;;;;6272623;28;20047;-80
2022/09/07 08:49:12;;;;;;;5.80;1.40;;;36.80;49.00;;;;;;6270929;28;20053;-80
2022/09/07 08:52:19;;;;;;;3.95;0.90;;;37.60;47.80;;;;;;6262983;28;20048;-80
2022/09/07 08:55:26;;;;;;;2.63;0.60;;;38.10;46.80;;;;;;6271372;28;20517;-80
2022/09/07 08:58:38;;;;;;;7.50;1.00;;;38.50;45.80;;;;;;6271942;28;20064;-80
2022/09/07 09:01:42;;;;;;;7.50;1.00;;;38.20;45.40;;;;;;6270755;28;20045;-80
2022/09/07 09:04:44;;;;;;;8.57;0.98;;;38.40;45.50;;;;;;6271454;28;20053;-81
2022/09/07 09:07:57;;;;;;;4.43;1.70;;;38.90;44.80;;;;;;6265955;28;20064;-80
2022/09/07 09:11:04;;;;;;;8.02;0.85;;;39.00;44.00;;;;;;6280313;28;20403;-81
2022/09/07 09:14:15;;;;;;;2.97;0.73;;;38.00;44.70;;;;;;6281742;28;20052;-81
2022/09/07 09:17:26;;;;;;;4.32;1.33;;;36.50;46.80;;;;;;6279921;28;20064;-82
2022/09/07 09:20:35;;;;;;;9.23;1.00;;;35.20;48.80;;;;;;6278961;28;20725;-81
2022/09/07 09:23:41;;;;;;;7.22;0.82;;;34.10;51.00;;;;;;6280166;28;20395;-81
2022/09/07 09:26:47;;;;;;;5.72;1.35;;;33.50;52.60;;;;;;6282414;28;20049;-82
2022/09/07 09:29:49;;;;;;;5.03;0.90;;;33.20;53.30;;;;;;6278638;28;20149;-81
2022/09/07 09:32:52;;;;;;;3.78;1.30;;;32.80;54.80;;;;;;6275774;28;20049;-81
2022/09/07 09:35:56;;;;;;;5.95;1.38;;;32.70;54.80;;;;;;6278391;28;20048;-82
2022/09/07 09:38:59;;;;;;;6.30;1.83;;;32.70;54.60;;;;;;6275591;28;20053;-82
2022/09/07 09:42:15;;;;;;;4.75;1.15;;;33.20;54.20;;;;;;6275635;28;20066;-82
2022/09/07 09:45:20;;;;;;;5.57;1.45;;;33.70;53.30;;;;;;6275419;28;20053;-82
2022/09/07 09:48:30;;;;;;;7.18;1.00;;;33.80;53.10;;;;;;6275477;28;20128;-82
2022/09/07 09:51:34;;;;;;;4.00;1.05;;;33.80;53.00;;;;;;6275883;28;20053;-81
2022/09/07 09:54:41;;;;;;;9.95;1.30;;;33.40;52.60;;;;;;6277085;28;20049;-82
2022/09/07 09:57:49;;;;;;;8.15;1.00;;;32.90;53.80;;;;;;6275751;28;20406;-82
2022/09/07 10:00:56;;;;;;;12.23;1.23;;;32.50;54.60;;;;;;6276189;28;20056;-82
2022/09/07 10:03:58;;;;;;;4.90;1.08;;;32.30;55.40;;;;;;6275860;28;20053;-82
2022/09/07 10:07:14;;;;;;;2.17;0.95;;;32.50;56.20;;;;;;6275841;28;20045;-82
2022/09/07 10:10:17;;;;;;;12.43;1.83;;;32.80;56.10;;;;;;6277348;28;20122;-82
2022/09/07 10:13:22;;;;;;;3.97;1.00;;;32.90;54.90;;;;;;6276077;28;20052;-82
2022/09/07 10:16:38;;;;;;;6.55;0.70;;;33.00;54.30;;;;;;6274984;28;20048;-82
2022/09/07 10:19:42;;;;;;;10.18;2.55;;;32.80;54.10;;;;;;6275005;28;20544;-83
2022/09/07 10:22:45;;;;;;;2.72;0.80;;;32.80;53.90;;;;;;6276339;28;20288;-82
2022/09/07 10:25:48;;;;;;;5.40;1.02;;;33.00;53.80;;;;;;6275987;28;20056;-82
2022/09/07 10:29:14;;;;;;;8.10;1.10;;;33.20;53.20;;;;;;6275728;28;20534;-82
2022/09/07 10:32:32;;;;;;;8.77;1.08;;;33.10;52.00;;;;;;6275924;28;20041;-82
2022/09/07 10:35:35;;;;;;;;;;;33.00;53.00;;;;;;6277694;28;20056;-81
2022/09/07 10:38:42;;;;;;;7.07;1.00;;;33.00;51.80;;;;;;6273807;28;19928;-82
2022/09/07 10:41:54;;;;;;;5.70;0.70;;;33.00;52.00;;;;;;6258635;28;20045;-82
2022/09/07 10:45:05;;;;;;;5.72;0.95;;;33.00;51.00;;;;;;6268853;28;20048;-82
2022/09/07 10:48:13;;;;;;;7.20;0.80;;;33.10;51.50;;;;;;6263643;28;20532;-82
2022/09/07 10:51:18;;;;;;;5.63;0.80;;;33.30;51.00;;;;;;6275718;28;20072;-83
2022/09/07 10:54:29;;;;;;;4.47;0.70;;;33.50;49.90;;;;;;6276075;28;20075;-82
2022/09/07 10:57:41;;;;;;;2.50;0.70;;;33.20;51.20;;;;;;6276939;28;20045;-84
2022/09/07 11:00:57;;;;;;;5.78;1.00;;;33.50;51.00;;;;;;6274428;28;20052;-82
2022/09/07 11:04:10;;;;;;;3.92;0.85;;;34.10;50.30;;;;;;6275077;28;20071;-82
2022/09/07 11:07:25;;;;;;;7.93;0.98;;;34.50;49.00;;;;;;6273987;28;20059;-82
2022/09/07 11:10:36;;;;;;;3.35;0.82;;;34.80;49.20;;;;;;6274016;28;20041;-83
2022/09/07 11:13:44;;;;;;;5.20;0.77;;;35.00;47.30;;;;;;6253880;28;20590;-82
2022/09/07 11:16:52;;;;;;;8.43;1.40;;;35.20;47.50;;;;;;6254295;28;20061;-84
2022/09/07 11:20:03;;;;;;;6.18;0.80;;;35.50;45.80;;;;;;6254726;28;20048;-83
2022/09/07 11:23:14;;;;;;;6.93;0.93;;;35.70;44.80;;;;;;6255524;28;20056;-82
2022/09/07 11:26:23;;;;;;;6.15;0.57;;;35.10;45.70;;;;;;6254432;28;20054;-82
2022/09/07 11:29:33;;;;;;;3.78;0.75;;;35.10;46.10;;;;;;6257903;28;20061;-83
2022/09/07 11:32:37;;;;;;;2.50;0.50;;;35.00;45.90;;;;;;6255116;28;20053;-82
2022/09/07 11:35:50;;;;;;;4.93;0.80;;;34.70;46.00;;;;;;6253249;28;20053;-82
2022/09/07 11:38:58;;;;;;;3.50;1.13;;;34.80;45.90;;;;;;6255424;28;20049;-81
2022/09/07 11:42:02;;;;;;;7.85;1.02;;;34.70;45.40;;;;;;6263270;28;20053;-83
2022/09/07 11:45:15;;;;;;;2.67;1.00;;;34.60;46.40;;;;;;6281960;28;20044;-81
2022/09/07 11:48:21;;;;;;;8.65;0.68;;;34.30;45.40;;;;;;6281904;28;20041;-81
2022/09/07 11:51:28;;;;;;;3.58;0.70;;;34.20;46.00;;;;;;6281922;28;20041;-81
2022/09/07 11:54:39;;;;;;;5.20;0.80;;;34.50;45.00;;;;;;6281006;28;20718;-81
2022/09/07 11:57:53;;;;;;;4.47;0.60;;;34.70;45.20;;;;;;6273599;28;20055;-81
2022/09/07 12:01:05;;;;;;;7.03;0.80;;;34.80;45.60;;;;;;6273237;28;20053;-82
2022/09/07 12:04:29;;;;;;;4.57;0.50;;;34.60;45.30;;;;;;6271226;28;20048;-82
2022/09/07 12:07:45;;;;;;;5.90;0.80;;;34.90;45.40;;;;;;6274626;28;20086;-82
2022/09/07 12:11:18;;;;;;;5.22;0.70;;;35.30;43.80;;;;;;6273366;28;20044;-82
2022/09/07 12:14:29;;;;;;;4.15;0.75;;;35.60;43.90;;;;;;6266166;28;20052;-82
2022/09/07 12:17:47;;;;;;;2.33;0.70;;;35.80;43.10;;;;;;6272597;28;20045;-82
2022/09/07 12:20:50;;;;;;;4.55;0.50;;;36.10;43.60;;;;;;6273583;28;20132;-82
2022/09/07 12:23:52;;;;;;;5.75;0.82;;;36.30;42.60;;;;;;6272009;28;20094;-82
2022/09/07 12:26:55;;;;;;;1.55;0.60;;;36.60;41.90;;;;;;6271982;28;20410;-81
2022/09/07 12:30:55;;;;;;;1.23;0.50;;;36.70;41.20;;;;;;6273109;28;20048;-81
2022/09/07 12:34:30;;;;;;;4.07;0.60;;;36.50;41.00;;;;;;6275183;28;20045;-81
2022/09/07 12:37:39;;;;;;;3.03;0.80;;;36.50;41.90;;;;;;6261742;28;20057;-82
2022/09/07 12:40:59;;;;;;;1.20;0.57;;;36.50;41.70;;;;;;6261094;28;20052;-82
2022/09/07 12:44:14;;;;;;;13.55;0.77;;;36.60;41.60;;;;;;6265430;28;20103;-83
2022/09/07 12:47:33;;;;;;;1.90;0.70;;;36.90;41.10;;;;;;6248301;28;20041;-82
2022/09/07 12:50:40;;;;;;;5.68;0.30;;;37.10;40.40;;;;;;6247928;28;20049;-83
2022/09/07 12:53:53;;;;;;;4.20;0.60;;;37.40;40.00;;;;;;6246471;28;20388;-82
2022/09/07 12:56:58;;;;;;;1.77;0.30;;;37.50;40.60;;;;;;6253960;28;20057;-83
2022/09/07 13:00:15;;;;;;;4.00;0.95;;;37.80;40.30;;;;;;6253779;28;20046;-83
2022/09/07 13:03:33;;;;;;;5.22;0.55;;;38.00;40.00;;;;;;6254361;28;20053;-82
2022/09/07 13:06:57;;;;;;;3.15;0.30;;;38.20;39.60;;;;;;6254913;28;20057;-83
2022/09/07 13:10:26;;;;;;;1.23;0.43;;;38.40;38.90;;;;;;6258928;28;20046;-83
2022/09/07 13:13:30;;;;;;;2.40;0.60;;;38.50;38.90;;;;;;6280769;28;20109;-84
2022/09/07 13:16:35;;;;;;;2.53;0.30;;;38.50;38.80;;;;;;6281770;28;20049;-83
2022/09/07 13:20:17;;;;;;;4.25;0.93;;;38.30;39.10;;;;;;6286707;28;20433;-83
2022/09/07 13:23:23;;;;;;;4.78;0.80;;;38.20;39.00;;;;;;6286240;28;20099;-83
2022/09/07 13:26:57;;;;;;;7.43;0.80;;;38.20;38.50;;;;;;6281758;28;20232;-82
2022/09/07 13:30:02;;;;;;;3.38;0.68;;;38.10;38.60;;;;;;6254241;28;20046;-81
2022/09/07 13:33:49;;;;;;;2.47;0.60;;;38.10;38.30;;;;;;6276806;28;20045;-82
2022/09/07 13:36:51;;;;;;;2.25;0.68;;;37.50;38.30;;;;;;6306945;28;20080;-82
2022/09/07 13:39:55;;;;;;;3.15;0.70;;;37.10;39.10;;;;;;6306137;28;20059;-82
2022/09/07 13:42:59;;;;;;;3.38;0.70;;;36.70;39.50;;;;;;6288063;28;20494;-80
2022/09/07 13:46:05;;;;;;;6.13;0.60;;;36.30;40.10;;;;;;6289212;28;20040;-80
2022/09/07 13:49:21;;;;;;;0.57;0.30;;;36.00;40.60;;;;;;6275476;28;20076;-80
2022/09/07 13:52:29;;;;;;;3.75;0.57;;;35.60;40.50;;;;;;6284566;28;20036;-81
2022/09/07 13:55:37;;;;;;;5.13;0.40;;;35.20;41.10;;;;;;6292373;28;20048;-80
2022/09/07 13:58:46;;;;;;;4.53;0.52;;;34.70;41.50;;;;;;6300795;22;20039;-80
2022/09/07 14:01:50;;;;;;;4.30;0.70;;;34.40;42.00;;;;;;6257776;28;20105;-80
2022/09/07 14:04:54;;;;;;;3.83;0.70;;;34.10;43.20;;;;;;6258313;28;20045;-80
2022/09/07 14:07:56;;;;;;;1.23;0.47;;;34.00;43.20;;;;;;6258089;28;20057;-80
2022/09/07 14:10:58;;;;;;;0.80;0.30;;;34.00;43.40;;;;;;6248057;28;20056;-79
2022/09/07 14:14:16;;;;;;;3.33;0.38;;;33.90;43.20;;;;;;6237383;28;20049;-83
2022/09/07 14:17:19;;;;;;;2.55;0.38;;;33.70;43.20;;;;;;6231587;28;20057;-82
2022/09/07 14:20:22;;;;;;;3.38;0.40;;;33.70;43.60;;;;;;6230674;28;20054;-80
2022/09/07 14:23:28;;;;;;;4.43;0.50;;;33.50;43.60;;;;;;6228195;28;20582;-80
2022/09/07 14:26:30;;;;;;;1.30;0.50;;;33.40;44.30;;;;;;6229693;28;20125;-80
2022/09/07 14:29:35;;;;;;;2.47;0.43;;;33.40;44.00;;;;;;6230063;28;20057;-81
2022/09/07 14:32:37;;;;;;;2.38;0.73;;;33.60;44.00;;;;;;6232771;28;20052;-80
2022/09/07 14:35:40;;;;;;;4.10;0.52;;;33.70;43.50;;;;;;6229694;28;20416;-80
2022/09/07 14:38:42;;;;;;;1.00;0.40;;;33.80;43.00;;;;;;6230361;28;20065;-80
2022/09/07 14:41:45;;;;;;;3.20;0.60;;;33.90;42.70;;;;;;6232479;28;20066;-80
2022/09/07 14:44:48;;;;;;;1.75;0.50;;;34.00;42.70;;;;;;6233386;28;20049;-80
2022/09/07 14:47:53;;;;;;;2.03;0.40;;;34.00;42.40;;;;;;6218879;28;20072;-80
2022/09/07 14:50:55;;;;;;;2.70;0.60;;;33.90;42.50;;;;;;6227452;28;20434;-80
2022/09/07 14:53:59;;;;;;;2.63;0.40;;;34.00;42.10;;;;;;6216650;28;20046;-80
2022/09/07 14:57:04;;;;;;;2.28;0.52;;;34.30;41.70;;;;;;6219402;28;20057;-80
2022/09/07 15:00:30;;;;;;;4.97;0.52;;;34.50;42.10;;;;;;6230768;28;20052;-80
2022/09/07 15:03:34;;;;;;;3.38;0.43;;;34.50;42.40;;;;;;6221530;28;20049;-81
2022/09/07 15:06:38;;;;;;;4.63;0.43;;;34.60;41.90;;;;;;6223777;28;20057;-80
2022/09/07 15:09:40;;;;;;;4.70;0.85;;;34.60;41.50;;;;;;6229610;28;20137;-80
2022/09/07 15:12:43;;;;;;;2.95;0.85;;;34.50;41.50;;;;;;6212529;28;20053;-81
2022/09/07 15:15:56;;;;;;;0.90;0.30;;;34.30;42.00;;;;;;6223308;28;20419;-81
2022/09/07 15:19:01;;;;;;;1.77;0.73;;;34.00;42.10;;;;;;6230080;28;20050;-80
2022/09/07 15:22:09;;;;;;;2.60;0.60;;;33.90;42.90;;;;;;6228183;28;20053;-80
2022/09/07 15:25:11;;;;;;;1.95;0.90;;;33.70;42.60;;;;;;6228334;28;20670;-80
2022/09/07 15:28:23;;;;;;;2.83;0.60;;;33.40;43.30;;;;;;6228180;28;20072;-80
2022/09/07 15:31:32;;;;;;;2.60;0.47;;;33.20;43.30;;;;;;6228435;28;20100;-81
2022/09/07 15:34:34;;;;;;;3.20;0.60;;;32.90;43.90;;;;;;6228619;28;20046;-80
2022/09/07 15:37:36;;;;;;;7.30;0.82;;;32.60;45.10;;;;;;6228443;28;20056;-80
2022/09/07 15:40:42;;;;;;;2.22;0.60;;;32.20;44.80;;;;;;6223817;28;20121;-80
2022/09/07 15:43:44;;;;;;;1.27;0.43;;;31.90;45.50;;;;;;6212389;28;20057;-81
2022/09/07 15:46:47;;;;;;;6.80;0.70;;;31.60;46.00;;;;;;6214611;28;20042;-81
2022/09/07 15:49:49;;;;;;;4.78;0.65;;;31.30;46.60;;;;;;6206856;28;20420;-80
2022/09/07 15:52:51;;;;;;;3.30;0.60;;;31.10;47.10;;;;;;6206242;28;20050;-81
2022/09/07 15:55:54;;;;;;;5.30;0.50;;;30.90;47.60;;;;;;6204272;28;20057;-79
2022/09/07 15:58:56;;;;;;;3.58;0.55;;;30.70;48.20;;;;;;6203642;28;20056;-79
2022/09/07 16:01:59;;;;;;;1.65;0.40;;;30.50;48.40;;;;;;6202192;28;20046;-79
2022/09/07 16:05:01;;;;;;;3.50;0.40;;;30.30;48.60;;;;;;6203864;28;20058;-79
2022/09/07 16:08:03;;;;;;;0.95;0.60;;;30.00;50.30;;;;;;6209976;28;20042;-80
2022/09/07 16:11:14;;;;;;;1.73;0.60;;;29.80;49.00;;;;;;6223129;28;20042;-81